Time;durP1;ratioP1;P1;durP2;ratioP2;P2;SDS_P1;SDS_P2;PMS_P1;PMS_P2;Temp;Humidity;BMP_temperature;BMP_pressure;BME280_temperature;BME280_humidity;BME280_pressure;Samples;Min_cycle;Max_cycle;Signal;HPM_P1;HPM_P2
2023/06/28 00:00:14;;;;;;;9.48;2.58;;;18.80;99.90;;;;;;4958445;28;20031;-79
2023/06/28 00:02:40;;;;;;;3.38;2.10;;;18.80;99.90;;;;;;4960166;28;20021;-79
2023/06/28 00:05:09;;;;;;;8.27;2.95;;;18.80;99.90;;;;;;4963568;28;20034;-79
2023/06/28 00:07:35;;;;;;;4.03;2.55;;;18.70;99.90;;;;;;4957542;28;20030;-78
2023/06/28 00:10:01;;;;;;;5.57;2.30;;;18.70;99.90;;;;;;4945699;28;20077;-78
2023/06/28 00:12:29;;;;;;;7.63;3.33;;;18.70;99.90;;;;;;4944692;28;20408;-79
2023/06/28 00:14:55;;;;;;;6.20;2.63;;;18.70;99.90;;;;;;4959011;28;20015;-78
2023/06/28 00:17:27;;;;;;;5.43;2.72;;;18.70;99.90;;;;;;4964168;28;20046;-79
2023/06/28 00:19:54;;;;;;;6.23;2.60;;;18.70;99.90;;;;;;4959608;28;20082;-78
2023/06/28 00:22:19;;;;;;;5.97;2.53;;;18.70;99.90;;;;;;4944657;28;20065;-78
2023/06/28 00:24:45;;;;;;;9.32;3.00;;;18.70;99.90;;;;;;4960573;28;20412;-78
2023/06/28 00:27:13;;;;;;;7.32;3.05;;;18.60;99.90;;;;;;4943964;28;20370;-78
2023/06/28 00:29:38;;;;;;;10.63;3.28;;;18.60;99.90;;;;;;4960237;28;20034;-79
2023/06/28 00:32:04;;;;;;;13.73;2.90;;;18.60;99.90;;;;;;4950099;28;20628;-80
2023/06/28 00:34:30;;;;;;;6.43;2.55;;;18.60;99.90;;;;;;4945031;28;20122;-80
2023/06/28 00:36:58;;;;;;;7.40;2.63;;;18.60;99.90;;;;;;4960946;28;20026;-80
2023/06/28 00:39:23;;;;;;;7.32;2.70;;;18.50;99.90;;;;;;4959555;28;20058;-80
2023/06/28 00:41:49;;;;;;;5.10;2.53;;;18.50;99.90;;;;;;4962422;28;20029;-78
2023/06/28 00:44:14;;;;;;;7.32;3.03;;;18.40;99.90;;;;;;4961084;28;20031;-78
2023/06/28 00:46:40;;;;;;;7.35;2.90;;;18.40;99.90;;;;;;4961036;28;20047;-77
2023/06/28 00:49:05;;;;;;;8.43;2.50;;;18.30;99.90;;;;;;4960757;28;20497;-78
2023/06/28 00:51:32;;;;;;;8.18;3.20;;;18.30;99.90;;;;;;4942635;28;20039;-78
2023/06/28 00:53:58;;;;;;;6.95;2.75;;;18.30;99.90;;;;;;4959431;28;20476;-78
2023/06/28 00:56:25;;;;;;;6.25;2.88;;;18.30;99.90;;;;;;4944181;28;20018;-77
2023/06/28 00:58:51;;;;;;;6.65;2.80;;;18.30;99.90;;;;;;4958775;28;20086;-78
2023/06/28 01:01:17;;;;;;;7.38;3.17;;;18.30;99.90;;;;;;4944409;28;20039;-78
2023/06/28 01:03:43;;;;;;;6.30;2.40;;;18.30;99.90;;;;;;4960036;28;20484;-78
2023/06/28 01:06:12;;;;;;;4.28;2.58;;;18.20;99.90;;;;;;4961674;28;20102;-78
2023/06/28 01:08:41;;;;;;;10.68;2.70;;;18.10;99.90;;;;;;4960656;28;20096;-79
2023/06/28 01:11:09;;;;;;;10.43;2.97;;;18.10;99.90;;;;;;4960858;28;20527;-77
2023/06/28 01:13:35;;;;;;;8.90;3.05;;;18.00;99.90;;;;;;4959436;28;20019;-78
2023/06/28 01:16:02;;;;;;;7.95;2.22;;;17.90;99.90;;;;;;4953299;28;20711;-79
2023/06/28 01:18:29;;;;;;;8.70;2.50;;;17.90;99.90;;;;;;4967979;28;20034;-78
2023/06/28 01:20:56;;;;;;;8.82;2.33;;;17.90;99.90;;;;;;4969100;28;20030;-79
2023/06/28 01:23:25;;;;;;;4.93;2.40;;;17.80;99.90;;;;;;4957076;28;20621;-79
2023/06/28 01:25:51;;;;;;;10.10;2.58;;;17.80;99.90;;;;;;4965605;28;21071;-78
2023/06/28 01:28:19;;;;;;;8.27;3.10;;;17.80;99.90;;;;;;4946680;28;20038;-79
2023/06/28 01:30:48;;;;;;;10.00;3.08;;;17.80;99.90;;;;;;4961537;28;20094;-79
2023/06/28 01:33:14;;;;;;;9.73;2.70;;;17.70;99.90;;;;;;4964462;28;20110;-78
2023/06/28 01:35:40;;;;;;;8.25;2.70;;;17.70;99.90;;;;;;4963220;28;20106;-78
2023/06/28 01:38:07;;;;;;;8.25;2.45;;;17.80;99.90;;;;;;4947666;28;20475;-78
2023/06/28 01:40:35;;;;;;;11.23;2.90;;;17.80;99.90;;;;;;4965128;28;20033;-79
2023/06/28 01:43:05;;;;;;;5.32;2.60;;;17.80;99.90;;;;;;4964432;28;20049;-78
2023/06/28 01:45:32;;;;;;;7.22;2.95;;;17.70;99.90;;;;;;4965779;28;20023;-79
2023/06/28 01:47:57;;;;;;;6.60;2.70;;;17.70;99.90;;;;;;4963927;28;20432;-78
2023/06/28 01:50:23;;;;;;;9.73;2.65;;;17.70;99.90;;;;;;4965822;28;20027;-78
2023/06/28 01:52:49;;;;;;;9.15;3.22;;;17.70;99.90;;;;;;4965025;28;20014;-78
2023/06/28 01:55:16;;;;;;;15.95;3.40;;;17.70;99.90;;;;;;4945396;28;20031;-79
2023/06/28 01:57:43;;;;;;;8.68;3.33;;;17.70;99.90;;;;;;4964546;28;20022;-78
2023/06/28 02:00:10;;;;;;;9.85;3.50;;;17.60;99.90;;;;;;4946063;28;20046;-77
2023/06/28 02:02:36;;;;;;;7.47;3.05;;;17.60;99.90;;;;;;4963711;28;20041;-78
2023/06/28 02:05:02;;;;;;;9.18;2.85;;;17.60;99.90;;;;;;4964765;28;20038;-78
2023/06/28 02:07:29;;;;;;;8.88;3.05;;;17.60;99.90;;;;;;4964451;28;20066;-78
2023/06/28 02:09:55;;;;;;;6.32;2.35;;;17.60;99.90;;;;;;4965097;28;20029;-78
2023/06/28 02:12:23;;;;;;;7.22;3.10;;;17.50;99.90;;;;;;4968578;28;20043;-79
2023/06/28 02:14:52;;;;;;;9.20;2.58;;;17.50;99.90;;;;;;4972519;28;20027;-78
2023/06/28 02:17:21;;;;;;;10.65;3.33;;;17.60;99.90;;;;;;4948191;28;20024;-78
2023/06/28 02:19:48;;;;;;;8.68;3.08;;;17.50;99.90;;;;;;4962550;28;20105;-79
2023/06/28 02:22:14;;;;;;;8.25;2.67;;;17.60;99.90;;;;;;4963542;28;20023;-78
2023/06/28 02:24:40;;;;;;;7.28;2.83;;;17.60;99.90;;;;;;4948974;28;20042;-78
2023/06/28 02:27:05;;;;;;;4.28;2.63;;;17.60;99.90;;;;;;4960956;28;20591;-78
2023/06/28 02:29:34;;;;;;;6.20;2.38;;;17.60;99.90;;;;;;4947491;28;20116;-78
2023/06/28 02:31:59;;;;;;;7.25;2.90;;;17.50;99.90;;;;;;4952134;28;20039;-78
2023/06/28 02:34:25;;;;;;;2.95;2.60;;;17.50;99.90;;;;;;4962866;28;20029;-78
2023/06/28 02:36:51;;;;;;;5.25;2.30;;;17.60;99.90;;;;;;4961849;28;20093;-78
2023/06/28 02:39:16;;;;;;;4.15;2.58;;;17.60;99.90;;;;;;4963675;28;20029;-78
2023/06/28 02:41:42;;;;;;;3.97;2.40;;;17.50;99.90;;;;;;4963840;28;20069;-79
2023/06/28 02:44:07;;;;;;;8.85;2.33;;;17.60;99.90;;;;;;4960615;28;20893;-78
2023/06/28 02:46:33;;;;;;;7.95;2.85;;;17.50;99.90;;;;;;4963088;28;20109;-78
2023/06/28 02:48:59;;;;;;;11.70;2.58;;;17.50;99.90;;;;;;4948485;28;20419;-77
2023/06/28 02:51:25;;;;;;;6.35;2.42;;;17.50;99.90;;;;;;4961581;28;20117;-78
2023/06/28 02:53:50;;;;;;;6.65;2.65;;;17.40;99.90;;;;;;4961180;28;20030;-78
2023/06/28 02:56:16;;;;;;;13.95;2.75;;;17.40;99.90;;;;;;4963183;28;20117;-79
2023/06/28 02:58:44;;;;;;;7.63;2.80;;;17.40;99.90;;;;;;4960578;28;20328;-79
2023/06/28 03:01:10;;;;;;;8.45;2.50;;;17.40;99.90;;;;;;4946671;28;20027;-79
2023/06/28 03:03:36;;;;;;;9.02;3.03;;;17.30;99.90;;;;;;4964255;28;20034;-79
2023/06/28 03:06:02;;;;;;;8.70;3.15;;;17.30;99.90;;;;;;4962764;28;20085;-78
2023/06/28 03:08:30;;;;;;;7.05;3.00;;;17.30;99.90;;;;;;4964070;28;20046;-78
2023/06/28 03:10:56;;;;;;;7.47;2.30;;;17.30;99.90;;;;;;4959573;28;20039;-77
2023/06/28 03:13:24;;;;;;;11.88;3.10;;;17.40;99.90;;;;;;4953741;28;20423;-78
2023/06/28 03:15:49;;;;;;;8.55;3.15;;;17.40;99.90;;;;;;4960752;28;20529;-78
2023/06/28 03:18:15;;;;;;;4.65;2.80;;;17.40;99.90;;;;;;4958929;28;20118;-78
2023/06/28 03:20:41;;;;;;;7.18;3.08;;;17.40;99.90;;;;;;4944990;28;20210;-78
2023/06/28 03:23:07;;;;;;;6.78;2.63;;;17.40;99.90;;;;;;4945389;28;20023;-78
2023/06/28 03:25:32;;;;;;;4.20;2.60;;;17.40;99.90;;;;;;4961436;28;20352;-78
2023/06/28 03:27:58;;;;;;;8.60;2.97;;;17.40;99.90;;;;;;4946412;28;20039;-78
2023/06/28 03:30:23;;;;;;;5.75;2.60;;;17.50;99.90;;;;;;4943711;28;20141;-79
2023/06/28 03:32:49;;;;;;;7.55;2.42;;;17.50;99.90;;;;;;4963739;28;20097;-78
2023/06/28 03:35:15;;;;;;;10.52;2.85;;;17.40;99.90;;;;;;4946247;28;20037;-78
2023/06/28 03:37:52;;;;;;;5.95;2.78;;;17.50;99.90;;;;;;4960063;28;20057;-77
2023/06/28 03:40:18;;;;;;;10.07;2.75;;;17.40;99.90;;;;;;4961415;28;20031;-78
2023/06/28 03:42:47;;;;;;;7.05;3.15;;;17.30;99.90;;;;;;4951561;28;20261;-78
2023/06/28 03:45:16;;;;;;;6.38;2.63;;;17.30;99.90;;;;;;4946093;28;20041;-79
2023/06/28 03:47:42;;;;;;;4.07;2.78;;;17.30;99.90;;;;;;4944262;28;20045;-78
2023/06/28 03:50:08;;;;;;;5.90;2.80;;;17.30;99.90;;;;;;4965568;28;20363;-78
2023/06/28 03:52:36;;;;;;;7.53;2.55;;;17.30;99.90;;;;;;4969192;28;20038;-78
2023/06/28 03:55:02;;;;;;;5.75;2.50;;;17.30;99.90;;;;;;4960157;28;20459;-78
2023/06/28 03:57:28;;;;;;;10.98;2.58;;;17.30;99.90;;;;;;4963653;28;20034;-78
2023/06/28 03:59:54;;;;;;;5.15;2.78;;;17.30;99.90;;;;;;4961429;28;20081;-78
2023/06/28 04:02:22;;;;;;;6.20;2.70;;;17.30;99.90;;;;;;4962246;28;20071;-78
2023/06/28 04:04:48;;;;;;;8.10;2.88;;;17.40;99.90;;;;;;4945791;28;20046;-79
2023/06/28 04:07:14;;;;;;;6.85;2.47;;;17.40;99.90;;;;;;4960551;28;20569;-78
2023/06/28 04:09:40;;;;;;;4.85;2.97;;;17.40;99.90;;;;;;4946890;28;20613;-78
2023/06/28 04:12:09;;;;;;;6.53;2.60;;;17.40;99.90;;;;;;4967432;28;20125;-79
2023/06/28 04:14:35;;;;;;;8.82;2.88;;;17.50;99.90;;;;;;4967226;28;20057;-78
2023/06/28 04:17:00;;;;;;;5.20;2.75;;;17.40;99.90;;;;;;4964869;28;20395;-79
2023/06/28 04:19:26;;;;;;;5.80;2.40;;;17.40;99.90;;;;;;4958636;28;20151;-78
2023/06/28 04:21:51;;;;;;;7.35;2.42;;;17.40;99.90;;;;;;4961830;28;20034;-79
2023/06/28 04:24:17;;;;;;;4.68;2.65;;;17.40;99.90;;;;;;4960920;28;20031;-78
2023/06/28 04:26:43;;;;;;;6.70;2.60;;;17.40;99.90;;;;;;4952161;28;20030;-78
2023/06/28 04:29:08;;;;;;;7.95;2.60;;;17.40;99.90;;;;;;4963308;28;20118;-78
2023/06/28 04:31:34;;;;;;;7.00;2.50;;;17.50;99.90;;;;;;4960748;28;20394;-78
2023/06/28 04:34:00;;;;;;;6.03;2.42;;;17.50;99.90;;;;;;4944413;28;20398;-78
2023/06/28 04:36:26;;;;;;;8.77;2.20;;;17.50;99.90;;;;;;4947861;28;20605;-78
2023/06/28 04:38:54;;;;;;;7.82;2.30;;;17.50;99.90;;;;;;4961750;28;20038;-78
2023/06/28 04:41:25;;;;;;;8.27;2.40;;;17.50;99.90;;;;;;4962012;28;20407;-78
2023/06/28 04:43:54;;;;;;;8.85;2.40;;;17.50;99.90;;;;;;4960886;28;20030;-78
2023/06/28 04:46:20;;;;;;;6.13;2.40;;;17.50;99.90;;;;;;4956764;28;20031;-78
2023/06/28 04:48:46;;;;;;;4.82;2.38;;;17.40;99.90;;;;;;4962107;28;20030;-78
2023/06/28 04:51:12;;;;;;;6.47;2.10;;;17.30;99.90;;;;;;4960076;28;20054;-78
2023/06/28 04:53:37;;;;;;;5.32;2.25;;;17.30;99.90;;;;;;4960564;28;20692;-78
2023/06/28 04:56:03;;;;;;;4.68;2.03;;;17.30;99.90;;;;;;4952262;28;20498;-78
2023/06/28 04:58:29;;;;;;;5.60;2.13;;;17.30;99.90;;;;;;4960295;28;20035;-78
2023/06/28 05:00:56;;;;;;;6.22;2.30;;;17.40;99.90;;;;;;4959443;28;20053;-79
2023/06/28 05:03:26;;;;;;;4.00;2.08;;;17.50;99.90;;;;;;4959291;28;20038;-78
2023/06/28 05:05:53;;;;;;;10.63;2.25;;;17.60;99.90;;;;;;4941911;28;20081;-78
2023/06/28 05:08:19;;;;;;;4.03;2.78;;;17.60;99.90;;;;;;4942754;28;20061;-79
2023/06/28 05:10:44;;;;;;;7.10;2.35;;;17.60;99.90;;;;;;4943084;28;20761;-79
2023/06/28 05:13:10;;;;;;;5.57;2.42;;;17.70;99.90;;;;;;4957644;28;20027;-78
2023/06/28 05:15:36;;;;;;;6.70;2.30;;;17.70;99.90;;;;;;4939669;28;20031;-79
2023/06/28 05:18:02;;;;;;;5.68;2.45;;;17.70;99.90;;;;;;4960834;28;20043;-79
2023/06/28 05:20:29;;;;;;;3.70;2.25;;;17.80;99.90;;;;;;4961612;28;20027;-79
2023/06/28 05:23:08;;;;;;;5.65;2.47;;;17.70;99.90;;;;;;4960034;28;20074;-79
2023/06/28 05:25:36;;;;;;;5.88;2.60;;;17.70;99.90;;;;;;4962211;28;20038;-78
2023/06/28 05:28:02;;;;;;;6.57;2.45;;;17.70;99.90;;;;;;4963378;28;20031;-85
2023/06/28 05:30:28;;;;;;;14.05;2.75;;;17.70;99.90;;;;;;4961636;28;20479;-85
2023/06/28 05:32:54;;;;;;;5.68;3.05;;;17.60;99.90;;;;;;4963317;28;20041;-85
2023/06/28 05:35:19;;;;;;;10.90;2.92;;;17.60;99.90;;;;;;4964387;28;20110;-85
2023/06/28 05:37:45;;;;;;;4.90;2.70;;;17.50;99.90;;;;;;4961638;28;20093;-84
2023/06/28 05:40:11;;;;;;;4.40;2.75;;;17.50;99.90;;;;;;4944804;28;20379;-84
2023/06/28 05:42:36;;;;;;;6.65;2.47;;;17.60;99.90;;;;;;4945607;28;20554;-82
2023/06/28 05:45:03;;;;;;;9.52;2.88;;;17.70;99.90;;;;;;4962355;28;20034;-83
2023/06/28 05:47:28;;;;;;;3.92;2.90;;;17.70;99.90;;;;;;4947314;28;20046;-85
2023/06/28 05:49:55;;;;;;;6.32;2.78;;;17.70;99.90;;;;;;4961411;28;20078;-84
2023/06/28 05:52:23;;;;;;;4.82;2.60;;;17.60;99.90;;;;;;4961036;28;20059;-85
2023/06/28 05:54:48;;;;;;;6.25;3.03;;;17.60;99.90;;;;;;4945758;28;20026;-85
2023/06/28 05:57:16;;;;;;;7.00;2.90;;;17.60;99.90;;;;;;4947042;28;20027;-84
2023/06/28 05:59:42;;;;;;;5.25;2.90;;;17.60;99.90;;;;;;4964762;28;20015;-85
2023/06/28 06:02:09;;;;;;;4.68;3.08;;;17.60;99.90;;;;;;4964524;28;20592;-85
2023/06/28 06:04:35;;;;;;;5.85;2.55;;;17.60;99.90;;;;;;4965397;28;20059;-85
2023/06/28 06:07:01;;;;;;;8.65;2.95;;;17.50;99.90;;;;;;4962834;28;20505;-87
2023/06/28 06:09:28;;;;;;;9.93;3.22;;;17.50;99.90;;;;;;4965347;28;20037;-87
2023/06/28 06:11:56;;;;;;;7.53;3.20;;;17.50;99.90;;;;;;4968101;28;20034;-88
2023/06/28 06:14:22;;;;;;;3.70;2.83;;;17.40;99.90;;;;;;4975045;28;20015;-83
2023/06/28 06:16:47;;;;;;;9.55;2.55;;;17.10;99.90;;;;;;4965658;28;20027;-87
2023/06/28 06:19:13;;;;;;;8.98;3.10;;;16.70;99.90;;;;;;4971649;28;20035;-87
2023/06/28 06:21:39;;;;;;;8.95;3.17;;;16.30;99.90;;;;;;4969551;28;20050;-86
2023/06/28 06:24:07;;;;;;;10.43;2.72;;;16.00;99.90;;;;;;4951272;28;20582;-87
2023/06/28 06:26:34;;;;;;;6.60;3.03;;;15.90;99.90;;;;;;4964490;28;20050;-88
2023/06/28 06:29:00;;;;;;;6.15;3.15;;;16.00;99.90;;;;;;4968008;28;20065;-87
2023/06/28 06:31:27;;;;;;;4.75;2.67;;;16.00;99.90;;;;;;4964579;28;20042;-86
2023/06/28 06:34:01;;;;;;;7.53;3.10;;;16.00;99.90;;;;;;4960129;28;20026;-87
2023/06/28 06:36:29;;;;;;;4.85;2.83;;;16.00;99.90;;;;;;4966579;28;20034;-85
2023/06/28 06:38:59;;;;;;;4.65;2.38;;;15.90;99.90;;;;;;4969235;28;20351;-82
2023/06/28 06:41:25;;;;;;;7.53;2.60;;;15.90;99.90;;;;;;4946055;28;20034;-81
2023/06/28 06:43:50;;;;;;;8.45;3.28;;;16.00;99.90;;;;;;4946969;28;20027;-82
2023/06/28 06:46:18;;;;;;;4.13;2.90;;;16.00;99.90;;;;;;4947680;28;20428;-82
2023/06/28 06:48:47;;;;;;;4.97;2.65;;;16.00;99.90;;;;;;4959497;28;20019;-82
2023/06/28 06:51:12;;;;;;;9.15;2.88;;;16.00;99.90;;;;;;4951048;28;20146;-82
2023/06/28 06:53:38;;;;;;;9.60;3.22;;;16.20;99.90;;;;;;4944019;28;20114;-82
2023/06/28 06:56:04;;;;;;;4.57;3.00;;;16.40;99.90;;;;;;4948933;28;20031;-82
2023/06/28 06:58:30;;;;;;;7.05;2.97;;;16.40;99.90;;;;;;4943479;28;20395;-81
2023/06/28 07:00:56;;;;;;;12.65;3.35;;;16.30;99.90;;;;;;4945568;28;20015;-80
2023/06/28 07:03:22;;;;;;;8.80;3.17;;;16.30;99.90;;;;;;4947355;28;20383;-82
2023/06/28 07:05:47;;;;;;;7.03;3.22;;;16.40;99.90;;;;;;4947116;28;20070;-81
2023/06/28 07:08:13;;;;;;;12.38;3.47;;;16.40;99.90;;;;;;4944616;28;20039;-80
2023/06/28 07:10:39;;;;;;;8.35;3.38;;;16.60;99.90;;;;;;4961455;28;20035;-84
2023/06/28 07:13:05;;;;;;;5.38;3.33;;;16.70;99.90;;;;;;4964246;28;20026;-86
2023/06/28 07:15:30;;;;;;;10.05;3.25;;;16.80;99.90;;;;;;4951681;28;20041;-86
2023/06/28 07:17:56;;;;;;;11.43;3.28;;;16.80;99.90;;;;;;4962642;28;20034;-86
2023/06/28 07:20:22;;;;;;;7.70;2.97;;;16.90;99.90;;;;;;4951209;28;20026;-87
2023/06/28 07:22:47;;;;;;;12.77;3.75;;;16.90;99.90;;;;;;4965426;28;20039;-83
2023/06/28 07:25:14;;;;;;;8.13;2.90;;;16.90;99.90;;;;;;4964832;28;20019;-87
2023/06/28 07:27:39;;;;;;;7.88;3.10;;;16.90;99.90;;;;;;4960112;28;20608;-86
2023/06/28 07:30:07;;;;;;;11.48;3.40;;;17.00;99.90;;;;;;4968389;28;20035;-87
2023/06/28 07:32:35;;;;;;;13.95;3.33;;;17.10;99.90;;;;;;4966166;28;20117;-89
2023/06/28 07:35:01;;;;;;;10.30;3.80;;;17.10;99.90;;;;;;4980803;28;20700;-87
2023/06/28 07:37:26;;;;;;;10.27;3.38;;;17.20;99.90;;;;;;4973323;28;20039;-87
2023/06/28 07:39:52;;;;;;;4.78;3.08;;;17.30;99.90;;;;;;4951976;28;20022;-87
2023/06/28 07:42:19;;;;;;;10.40;3.60;;;17.40;99.90;;;;;;4944599;28;20031;-83
2023/06/28 07:44:45;;;;;;;8.75;3.22;;;17.40;99.90;;;;;;4964616;28;20038;-84
2023/06/28 07:47:13;;;;;;;6.85;3.22;;;17.50;99.90;;;;;;4966782;28;20022;-88
2023/06/28 07:49:39;;;;;;;5.63;3.50;;;17.50;99.90;;;;;;4947499;28;20019;-88
2023/06/28 07:52:05;;;;;;;12.80;4.35;;;17.60;99.90;;;;;;4968328;28;20065;-89
2023/06/28 07:54:31;;;;;;;8.15;3.25;;;17.50;99.90;;;;;;4962856;28;20031;-86
2023/06/28 07:56:56;;;;;;;11.07;3.78;;;17.40;99.90;;;;;;4964283;28;20042;-86
2023/06/28 07:59:22;;;;;;;12.10;3.88;;;17.40;99.90;;;;;;4967684;28;20025;-83
2023/06/28 08:01:48;;;;;;;9.30;4.25;;;17.30;99.90;;;;;;4984084;28;20039;-87
2023/06/28 08:04:17;;;;;;;11.60;3.72;;;17.40;99.90;;;;;;4969163;28;20081;-87
2023/06/28 08:06:43;;;;;;;9.90;3.95;;;17.40;99.90;;;;;;4975510;28;20058;-86
2023/06/28 08:09:12;;;;;;;11.15;3.58;;;17.50;99.90;;;;;;4962648;28;20046;-84
2023/06/28 08:11:37;;;;;;;8.82;3.80;;;17.60;99.90;;;;;;4962248;28;20063;-83
2023/06/28 08:14:04;;;;;;;14.55;4.25;;;17.80;99.90;;;;;;4955440;28;20119;-84
2023/06/28 08:16:30;;;;;;;12.15;3.78;;;17.80;99.90;;;;;;4946155;28;20019;-85
2023/06/28 08:18:55;;;;;;;9.45;3.72;;;17.80;99.90;;;;;;4966510;28;20030;-87
2023/06/28 08:21:21;;;;;;;7.97;3.38;;;17.80;99.90;;;;;;4964063;28;20058;-86
2023/06/28 08:23:47;;;;;;;8.25;4.15;;;17.80;99.90;;;;;;4947634;28;20108;-87
2023/06/28 08:26:12;;;;;;;12.85;3.58;;;17.70;99.90;;;;;;4966387;28;20632;-85
2023/06/28 08:28:38;;;;;;;7.35;3.17;;;17.70;99.90;;;;;;4963079;28;20031;-87
2023/06/28 08:31:03;;;;;;;8.02;3.42;;;17.70;99.90;;;;;;4965672;28;20032;-87
2023/06/28 08:33:29;;;;;;;6.63;2.95;;;17.60;99.90;;;;;;4955682;28;20031;-85
2023/06/28 08:35:55;;;;;;;8.98;3.00;;;17.60;99.90;;;;;;4967435;28;20031;-86
2023/06/28 08:38:23;;;;;;;9.43;3.08;;;17.70;99.90;;;;;;4952020;28;20046;-88
2023/06/28 08:40:48;;;;;;;11.18;3.25;;;17.70;99.90;;;;;;4958275;28;20081;-88
2023/06/28 08:43:17;;;;;;;6.60;3.25;;;17.80;99.90;;;;;;4949323;28;20015;-86
2023/06/28 08:45:44;;;;;;;5.43;2.90;;;17.80;99.90;;;;;;4949231;28;20038;-88
2023/06/28 08:48:12;;;;;;;11.75;3.38;;;17.80;99.90;;;;;;4945827;28;20081;-87
2023/06/28 08:50:40;;;;;;;13.65;3.53;;;17.80;99.90;;;;;;4966738;28;20026;-85
2023/06/28 08:53:09;;;;;;;9.50;3.28;;;17.90;99.90;;;;;;4970466;28;20042;-86
2023/06/28 08:55:36;;;;;;;8.27;2.90;;;18.00;99.90;;;;;;4966808;28;20494;-87
2023/06/28 08:58:03;;;;;;;7.63;2.80;;;18.10;99.90;;;;;;4950083;28;20506;-84
2023/06/28 09:00:29;;;;;;;8.40;3.38;;;18.10;99.90;;;;;;4963632;28;20062;-84
2023/06/28 09:02:56;;;;;;;15.57;3.65;;;18.20;99.90;;;;;;4949206;28;20023;-85
2023/06/28 09:05:22;;;;;;;9.82;3.30;;;18.30;99.90;;;;;;4967984;28;20026;-87
2023/06/28 09:07:52;;;;;;;9.02;3.30;;;18.30;99.90;;;;;;4949542;28;20042;-87
2023/06/28 09:10:19;;;;;;;8.82;2.83;;;18.40;99.90;;;;;;4949301;28;20034;-85
2023/06/28 09:12:47;;;;;;;7.82;3.05;;;18.30;99.90;;;;;;4966353;28;20062;-84
2023/06/28 09:15:12;;;;;;;8.05;3.33;;;18.20;99.90;;;;;;4948248;28;20149;-86
2023/06/28 09:17:38;;;;;;;6.70;3.05;;;18.30;99.90;;;;;;4946084;28;20055;-84
2023/06/28 09:20:17;;;;;;;9.20;2.78;;;18.50;99.90;;;;;;4949307;28;20346;-85
2023/06/28 09:22:42;;;;;;;6.22;2.95;;;18.50;99.90;;;;;;4962892;28;20049;-86
2023/06/28 09:25:14;;;;;;;12.88;3.00;;;18.60;99.90;;;;;;4948865;28;20116;-85
2023/06/28 09:27:41;;;;;;;8.75;2.92;;;18.70;99.90;;;;;;4966606;28;20719;-86
2023/06/28 09:30:08;;;;;;;12.88;3.45;;;18.80;99.90;;;;;;4947861;28;20085;-86
2023/06/28 09:32:45;;;;;;;7.75;2.90;;;18.90;99.90;;;;;;4962918;28;20035;-88
2023/06/28 09:35:11;;;;;;;8.45;3.13;;;19.00;99.90;;;;;;4965571;28;20026;-86
2023/06/28 09:37:38;;;;;;;11.68;3.38;;;19.20;99.90;;;;;;4950123;28;20022;-87
2023/06/28 09:40:06;;;;;;;10.05;3.60;;;19.20;99.90;;;;;;4957876;28;20131;-86
2023/06/28 09:42:31;;;;;;;10.55;2.83;;;19.30;99.90;;;;;;4977647;28;20042;-86
2023/06/28 09:44:57;;;;;;;7.63;3.38;;;19.50;99.90;;;;;;4974830;28;20027;-85
2023/06/28 09:47:32;;;;;;;11.18;4.00;;;19.70;99.90;;;;;;4970098;28;20557;-85
2023/06/28 09:50:01;;;;;;;9.25;3.40;;;19.80;99.90;;;;;;4968168;28;20038;-86
2023/06/28 09:52:26;;;;;;;8.90;3.03;;;19.80;99.90;;;;;;4964840;28;20031;-85
2023/06/28 09:54:52;;;;;;;6.95;3.28;;;20.00;99.90;;;;;;4957019;28;20660;-86
2023/06/28 09:57:21;;;;;;;7.57;3.38;;;19.90;99.90;;;;;;4965100;28;20423;-85
2023/06/28 09:59:54;;;;;;;12.43;3.08;;;20.10;99.90;;;;;;4965662;28;20023;-88
2023/06/28 10:02:23;;;;;;;9.50;3.20;;;20.10;99.90;;;;;;4965727;28;20039;-84
2023/06/28 10:04:51;;;;;;;11.48;3.13;;;20.10;99.90;;;;;;4950548;28;20509;-87
2023/06/28 10:07:19;;;;;;;7.00;3.17;;;20.20;99.90;;;;;;4947857;28;20031;-83
2023/06/28 10:09:45;;;;;;;14.25;3.47;;;20.40;99.90;;;;;;4951516;28;20082;-82
2023/06/28 10:12:20;;;;;;;13.23;3.70;;;20.30;99.90;;;;;;4965386;28;20035;-82
2023/06/28 10:15:01;;;;;;;10.75;3.10;;;20.50;99.90;;;;;;4969645;28;20428;-87
2023/06/28 10:17:34;;;;;;;7.10;3.53;;;20.40;99.90;;;;;;4968237;28;20026;-85
2023/06/28 10:20:00;;;;;;;11.25;3.40;;;20.40;99.90;;;;;;4953172;28;20046;-86
2023/06/28 10:22:26;;;;;;;10.63;3.15;;;20.40;99.90;;;;;;4971565;28;20107;-83
2023/06/28 10:24:53;;;;;;;8.82;2.90;;;20.50;99.90;;;;;;4963237;28;20015;-85
2023/06/28 10:27:20;;;;;;;13.88;4.50;;;20.50;99.90;;;;;;4977079;28;20022;-84
2023/06/28 10:29:50;;;;;;;12.60;3.50;;;20.60;99.90;;;;;;4972500;28;20038;-84
2023/06/28 10:32:16;;;;;;;7.80;3.22;;;20.60;99.90;;;;;;4979758;28;20731;-86
2023/06/28 10:34:43;;;;;;;6.85;3.33;;;20.70;99.90;;;;;;4957146;28;20019;-84
2023/06/28 10:37:09;;;;;;;12.00;3.72;;;20.80;99.90;;;;;;4975573;28;20482;-82
2023/06/28 10:39:38;;;;;;;8.88;3.33;;;20.80;99.90;;;;;;4958998;28;20038;-85
2023/06/28 10:42:05;;;;;;;7.45;4.03;;;20.70;99.90;;;;;;4958515;28;20077;-85
2023/06/28 10:44:33;;;;;;;13.82;4.80;;;20.70;99.90;;;;;;4973836;28;20051;-86
2023/06/28 10:47:09;;;;;;;9.85;4.25;;;20.70;99.90;;;;;;4968765;28;20031;-86
2023/06/28 10:49:35;;;;;;;11.15;4.43;;;20.60;99.90;;;;;;4969102;28;20035;-85
2023/06/28 10:52:01;;;;;;;10.55;4.03;;;20.60;99.90;;;;;;4972329;28;20390;-85
2023/06/28 10:54:27;;;;;;;9.43;4.55;;;20.60;99.90;;;;;;4971411;28;20131;-85
2023/06/28 10:56:58;;;;;;;11.60;4.05;;;20.70;99.90;;;;;;4965936;28;20061;-84
2023/06/28 10:59:26;;;;;;;8.15;3.45;;;20.90;99.90;;;;;;4951439;28;20059;-85
2023/06/28 11:01:53;;;;;;;10.52;4.25;;;20.70;99.90;;;;;;4945576;28;20467;-84
2023/06/28 11:04:24;;;;;;;9.25;3.97;;;20.90;99.90;;;;;;4939097;28;20019;-85
2023/06/28 11:07:20;;;;;;;14.45;4.35;;;20.90;99.90;;;;;;4949446;28;20065;-86
2023/06/28 11:10:09;;;;;;;8.48;3.70;;;20.80;99.90;;;;;;4956160;28;20023;-86
2023/06/28 11:12:34;;;;;;;7.35;4.00;;;20.70;99.90;;;;;;4959020;28;20047;-85
2023/06/28 11:15:08;;;;;;;8.20;3.92;;;20.70;99.90;;;;;;4978871;28;20537;-85
2023/06/28 11:17:33;;;;;;;8.85;3.90;;;20.90;99.90;;;;;;4964197;28;20031;-85
2023/06/28 11:20:25;;;;;;;9.60;4.20;;;21.10;99.90;;;;;;4962077;28;20427;-85
2023/06/28 11:22:52;;;;;;;7.45;3.47;;;21.50;99.90;;;;;;4945307;28;20034;-85
2023/06/28 11:25:27;;;;;;;14.15;4.22;;;21.40;99.90;;;;;;4948067;28;20034;-85
2023/06/28 11:27:53;;;;;;;13.27;4.40;;;21.80;99.90;;;;;;4963372;28;20030;-85
2023/06/28 11:30:19;;;;;;;10.88;4.03;;;22.00;99.90;;;;;;4963531;28;20019;-84
2023/06/28 11:32:45;;;;;;;11.68;3.75;;;22.10;99.90;;;;;;4961622;28;20038;-85
2023/06/28 11:35:12;;;;;;;11.18;4.25;;;22.30;99.90;;;;;;4948360;28;20085;-83
2023/06/28 11:37:39;;;;;;;8.32;3.67;;;22.10;99.90;;;;;;4948291;28;20074;-85
2023/06/28 11:40:05;;;;;;;14.32;4.03;;;22.20;99.90;;;;;;4952326;28;20741;-85
2023/06/28 11:42:31;;;;;;;9.07;3.72;;;22.50;99.90;;;;;;4963623;28;20077;-84
2023/06/28 11:44:56;;;;;;;9.15;3.97;;;22.70;99.90;;;;;;4962320;28;20022;-85
2023/06/28 11:47:23;;;;;;;9.05;3.72;;;22.90;99.90;;;;;;4949768;28;20386;-84
2023/06/28 11:49:49;;;;;;;11.02;4.05;;;22.90;99.90;;;;;;4962961;28;20669;-85
2023/06/28 11:52:17;;;;;;;12.43;4.30;;;22.90;99.90;;;;;;4963245;28;20039;-82
2023/06/28 11:54:45;;;;;;;11.07;4.78;;;22.90;99.90;;;;;;4966129;28;20023;-83
2023/06/28 11:57:11;;;;;;;7.45;4.05;;;22.50;99.90;;;;;;4962948;28;20019;-83
2023/06/28 11:59:44;;;;;;;9.68;4.05;;;22.60;99.90;;;;;;4961903;28;20038;-83
2023/06/28 12:02:10;;;;;;;;;;;22.60;99.90;;;;;;4964802;28;20102;-87
2023/06/28 12:04:37;;;;;;;9.98;4.65;;;22.30;99.90;;;;;;4946946;28;19906;-83
2023/06/28 12:07:06;;;;;;;9.23;4.07;;;22.40;99.90;;;;;;4959154;28;20038;-83
2023/06/28 12:09:34;;;;;;;13.32;4.68;;;22.70;99.90;;;;;;4962565;28;20018;-83
2023/06/28 12:12:07;;;;;;;11.00;5.03;;;22.80;99.90;;;;;;4945655;28;20034;-83
2023/06/28 12:14:42;;;;;;;13.60;4.57;;;22.90;99.90;;;;;;4963882;28;20086;-83
2023/06/28 12:17:08;;;;;;;10.40;4.72;;;22.90;99.90;;;;;;4961861;28;20217;-81
2023/06/28 12:19:35;;;;;;;12.45;4.10;;;23.00;99.90;;;;;;4944880;28;20011;-83
2023/06/28 12:22:08;;;;;;;11.70;5.20;;;23.00;99.90;;;;;;4959488;28;20077;-83
2023/06/28 12:24:36;;;;;;;16.42;5.20;;;23.30;99.90;;;;;;4962658;28;20062;-84
2023/06/28 12:27:10;;;;;;;15.68;5.22;;;23.40;99.90;;;;;;4962160;28;20042;-82
2023/06/28 12:29:37;;;;;;;15.48;5.72;;;23.30;99.90;;;;;;4944737;28;20030;-83
2023/06/28 12:32:08;;;;;;;12.52;5.35;;;23.10;99.90;;;;;;4945881;28;20034;-82
2023/06/28 12:34:37;;;;;;;12.85;5.20;;;23.20;99.90;;;;;;4945941;28;20080;-82
2023/06/28 12:37:11;;;;;;;12.73;4.72;;;23.20;99.90;;;;;;4948327;28;20418;-82
2023/06/28 12:39:43;;;;;;;13.27;5.25;;;23.20;99.90;;;;;;4944370;28;20035;-85
2023/06/28 12:42:19;;;;;;;14.27;5.30;;;22.90;99.90;;;;;;4960245;28;20058;-83